sensor_id;sensor_type;location;lat;lon;timestamp;P1;durP1;ratioP1;P2;durP2;ratioP2
21554;SDS011;10938;44.794;-0.676;2023-05-06T00:01:49;5.20;;;1.90;;
21554;SDS011;10938;44.794;-0.676;2023-05-06T00:04:15;4.47;;;1.92;;
21554;SDS011;10938;44.794;-0.676;2023-05-06T00:06:40;5.13;;;2.13;;
21554;SDS011;10938;44.794;-0.676;2023-05-06T00:09:06;4.50;;;1.70;;
21554;SDS011;10938;44.794;-0.676;2023-05-06T00:11:32;5.70;;;2.10;;
21554;SDS011;10938;44.794;-0.676;2023-05-06T00:13:57;3.85;;;1.80;;
21554;SDS011;10938;44.794;-0.676;2023-05-06T00:16:22;4.07;;;2.33;;
21554;SDS011;10938;44.794;-0.676;2023-05-06T00:18:48;3.63;;;1.88;;
21554;SDS011;10938;44.794;-0.676;2023-05-06T00:21:13;3.33;;;1.80;;
21554;SDS011;10938;44.794;-0.676;2023-05-06T00:23:38;4.10;;;1.93;;
21554;SDS011;10938;44.794;-0.676;2023-05-06T00:26:03;4.93;;;2.43;;
21554;SDS011;10938;44.794;-0.676;2023-05-06T00:28:29;7.38;;;2.13;;
21554;SDS011;10938;44.794;-0.676;2023-05-06T00:30:54;3.92;;;1.95;;
21554;SDS011;10938;44.794;-0.676;2023-05-06T00:33:20;3.23;;;1.60;;
21554;SDS011;10938;44.794;-0.676;2023-05-06T00:35:45;3.45;;;2.05;;
21554;SDS011;10938;44.794;-0.676;2023-05-06T00:38:11;5.97;;;2.10;;
21554;SDS011;10938;44.794;-0.676;2023-05-06T00:40:37;6.65;;;1.90;;
21554;SDS011;10938;44.794;-0.676;2023-05-06T00:43:03;3.65;;;1.80;;
21554;SDS011;10938;44.794;-0.676;2023-05-06T00:45:28;6.07;;;2.00;;
21554;SDS011;10938;44.794;-0.676;2023-05-06T00:47:53;5.32;;;2.10;;
21554;SDS011;10938;44.794;-0.676;2023-05-06T00:50:19;7.63;;;2.42;;
21554;SDS011;10938;44.794;-0.676;2023-05-06T00:52:45;5.60;;;1.92;;
21554;SDS011;10938;44.794;-0.676;2023-05-06T00:55:10;5.75;;;1.70;;
21554;SDS011;10938;44.794;-0.676;2023-05-06T00:57:36;3.20;;;1.67;;
21554;SDS011;10938;44.794;-0.676;2023-05-06T01:00:02;6.07;;;1.60;;
21554;SDS011;10938;44.794;-0.676;2023-05-06T01:02:27;3.05;;;1.45;;
21554;SDS011;10938;44.794;-0.676;2023-05-06T01:04:53;2.05;;;1.25;;
21554;SDS011;10938;44.794;-0.676;2023-05-06T01:09:56;2.42;;;1.20;;
21554;SDS011;10938;44.794;-0.676;2023-05-06T01:17:19;3.00;;;1.30;;
21554;SDS011;10938;44.794;-0.676;2023-05-06T01:19:48;3.30;;;1.50;;
21554;SDS011;10938;44.794;-0.676;2023-05-06T01:22:15;2.95;;;1.50;;
21554;SDS011;10938;44.794;-0.676;2023-05-06T01:24:41;4.78;;;1.55;;
21554;SDS011;10938;44.794;-0.676;2023-05-06T01:27:07;3.00;;;1.20;;
21554;SDS011;10938;44.794;-0.676;2023-05-06T01:29:32;5.22;;;1.42;;
21554;SDS011;10938;44.794;-0.676;2023-05-06T01:32:01;4.70;;;1.25;;
21554;SDS011;10938;44.794;-0.676;2023-05-06T01:34:33;4.82;;;1.50;;
21554;SDS011;10938;44.794;-0.676;2023-05-06T01:39:29;5.03;;;1.50;;
21554;SDS011;10938;44.794;-0.676;2023-05-06T01:41:55;2.78;;;1.60;;
21554;SDS011;10938;44.794;-0.676;2023-05-06T01:44:21;3.17;;;1.25;;
21554;SDS011;10938;44.794;-0.676;2023-05-06T01:46:47;2.67;;;1.20;;
21554;SDS011;10938;44.794;-0.676;2023-05-06T01:49:13;1.85;;;1.27;;
21554;SDS011;10938;44.794;-0.676;2023-05-06T01:51:40;2.65;;;1.13;;
21554;SDS011;10938;44.794;-0.676;2023-05-06T01:54:05;1.88;;;1.20;;
21554;SDS011;10938;44.794;-0.676;2023-05-06T01:56:30;3.20;;;1.40;;
21554;SDS011;10938;44.794;-0.676;2023-05-06T01:58:56;2.10;;;1.17;;
21554;SDS011;10938;44.794;-0.676;2023-05-06T02:01:22;2.35;;;1.20;;
21554;SDS011;10938;44.794;-0.676;2023-05-06T02:03:47;2.67;;;1.30;;
21554;SDS011;10938;44.794;-0.676;2023-05-06T02:06:13;2.63;;;1.35;;
21554;SDS011;10938;44.794;-0.676;2023-05-06T02:08:38;3.90;;;1.60;;
21554;SDS011;10938;44.794;-0.676;2023-05-06T02:11:04;3.85;;;1.73;;
21554;SDS011;10938;44.794;-0.676;2023-05-06T02:13:30;3.57;;;1.50;;
21554;SDS011;10938;44.794;-0.676;2023-05-06T02:15:55;2.07;;;1.27;;
21554;SDS011;10938;44.794;-0.676;2023-05-06T02:18:20;3.27;;;1.33;;
21554;SDS011;10938;44.794;-0.676;2023-05-06T02:20:46;3.42;;;1.45;;
21554;SDS011;10938;44.794;-0.676;2023-05-06T02:23:11;2.15;;;1.20;;
21554;SDS011;10938;44.794;-0.676;2023-05-06T02:25:37;3.47;;;1.20;;
21554;SDS011;10938;44.794;-0.676;2023-05-06T02:28:02;4.03;;;1.37;;
21554;SDS011;10938;44.794;-0.676;2023-05-06T02:30:28;2.15;;;1.20;;
21554;SDS011;10938;44.794;-0.676;2023-05-06T02:32:55;2.20;;;1.30;;
21554;SDS011;10938;44.794;-0.676;2023-05-06T02:35:21;1.92;;;1.30;;
21554;SDS011;10938;44.794;-0.676;2023-05-06T02:37:46;3.92;;;1.50;;
21554;SDS011;10938;44.794;-0.676;2023-05-06T02:40:12;2.73;;;1.20;;
21554;SDS011;10938;44.794;-0.676;2023-05-06T02:42:37;2.13;;;1.10;;
21554;SDS011;10938;44.794;-0.676;2023-05-06T02:45:03;3.60;;;1.42;;
21554;SDS011;10938;44.794;-0.676;2023-05-06T02:47:28;4.85;;;1.33;;
21554;SDS011;10938;44.794;-0.676;2023-05-06T02:49:53;2.00;;;1.30;;
21554;SDS011;10938;44.794;-0.676;2023-05-06T02:52:19;4.70;;;1.58;;
21554;SDS011;10938;44.794;-0.676;2023-05-06T02:54:44;3.97;;;1.48;;
21554;SDS011;10938;44.794;-0.676;2023-05-06T02:57:09;3.20;;;1.53;;
21554;SDS011;10938;44.794;-0.676;2023-05-06T02:59:36;3.58;;;1.50;;
21554;SDS011;10938;44.794;-0.676;2023-05-06T03:02:02;3.67;;;1.55;;
21554;SDS011;10938;44.794;-0.676;2023-05-06T03:04:27;1.73;;;1.30;;
21554;SDS011;10938;44.794;-0.676;2023-05-06T03:06:52;3.47;;;2.00;;
21554;SDS011;10938;44.794;-0.676;2023-05-06T03:09:17;2.77;;;1.40;;
21554;SDS011;10938;44.794;-0.676;2023-05-06T03:11:43;3.70;;;1.50;;
21554;SDS011;10938;44.794;-0.676;2023-05-06T03:14:08;4.35;;;1.90;;
21554;SDS011;10938;44.794;-0.676;2023-05-06T03:16:33;3.33;;;1.70;;
21554;SDS011;10938;44.794;-0.676;2023-05-06T03:18:59;4.05;;;1.50;;
21554;SDS011;10938;44.794;-0.676;2023-05-06T03:21:26;3.22;;;1.90;;
21554;SDS011;10938;44.794;-0.676;2023-05-06T03:23:51;3.40;;;1.73;;
21554;SDS011;10938;44.794;-0.676;2023-05-06T03:26:16;2.45;;;1.40;;
21554;SDS011;10938;44.794;-0.676;2023-05-06T03:28:41;4.43;;;1.50;;
21554;SDS011;10938;44.794;-0.676;2023-05-06T03:31:08;5.13;;;1.75;;
21554;SDS011;10938;44.794;-0.676;2023-05-06T03:33:33;3.50;;;1.65;;
21554;SDS011;10938;44.794;-0.676;2023-05-06T03:35:58;4.20;;;1.50;;
21554;SDS011;10938;44.794;-0.676;2023-05-06T03:38:24;3.20;;;1.50;;
21554;SDS011;10938;44.794;-0.676;2023-05-06T03:40:49;4.37;;;1.80;;
21554;SDS011;10938;44.794;-0.676;2023-05-06T03:43:14;4.03;;;1.60;;
21554;SDS011;10938;44.794;-0.676;2023-05-06T03:45:39;4.18;;;1.50;;
21554;SDS011;10938;44.794;-0.676;2023-05-06T03:48:05;2.00;;;1.50;;
21554;SDS011;10938;44.794;-0.676;2023-05-06T03:50:30;3.42;;;1.40;;
21554;SDS011;10938;44.794;-0.676;2023-05-06T03:52:55;4.80;;;1.40;;
21554;SDS011;10938;44.794;-0.676;2023-05-06T03:55:20;3.93;;;1.63;;
21554;SDS011;10938;44.794;-0.676;2023-05-06T03:57:46;2.15;;;1.48;;
21554;SDS011;10938;44.794;-0.676;2023-05-06T04:00:11;2.47;;;1.30;;
21554;SDS011;10938;44.794;-0.676;2023-05-06T04:02:37;3.95;;;1.60;;
21554;SDS011;10938;44.794;-0.676;2023-05-06T04:05:02;3.53;;;1.57;;
21554;SDS011;10938;44.794;-0.676;2023-05-06T04:07:28;4.10;;;1.45;;
21554;SDS011;10938;44.794;-0.676;2023-05-06T04:09:53;2.78;;;1.45;;
21554;SDS011;10938;44.794;-0.676;2023-05-06T04:12:19;3.70;;;1.40;;
21554;SDS011;10938;44.794;-0.676;2023-05-06T04:14:45;4.27;;;1.40;;
21554;SDS011;10938;44.794;-0.676;2023-05-06T04:17:10;3.50;;;1.58;;
21554;SDS011;10938;44.794;-0.676;2023-05-06T04:19:35;4.10;;;1.53;;
21554;SDS011;10938;44.794;-0.676;2023-05-06T04:22:02;4.82;;;1.35;;
21554;SDS011;10938;44.794;-0.676;2023-05-06T04:24:27;3.47;;;1.63;;
21554;SDS011;10938;44.794;-0.676;2023-05-06T04:26:53;4.22;;;1.20;;
21554;SDS011;10938;44.794;-0.676;2023-05-06T04:29:19;2.67;;;1.50;;
21554;SDS011;10938;44.794;-0.676;2023-05-06T04:31:45;2.90;;;1.45;;
21554;SDS011;10938;44.794;-0.676;2023-05-06T04:34:10;3.00;;;1.40;;
21554;SDS011;10938;44.794;-0.676;2023-05-06T04:36:35;4.95;;;1.50;;
21554;SDS011;10938;44.794;-0.676;2023-05-06T04:39:01;2.53;;;1.45;;
21554;SDS011;10938;44.794;-0.676;2023-05-06T04:41:27;2.47;;;1.13;;
21554;SDS011;10938;44.794;-0.676;2023-05-06T04:43:55;1.90;;;1.30;;
21554;SDS011;10938;44.794;-0.676;2023-05-06T04:46:20;2.92;;;1.30;;
21554;SDS011;10938;44.794;-0.676;2023-05-06T04:48:45;2.80;;;1.30;;
21554;SDS011;10938;44.794;-0.676;2023-05-06T04:51:11;3.03;;;1.30;;
21554;SDS011;10938;44.794;-0.676;2023-05-06T04:53:36;2.65;;;1.48;;
21554;SDS011;10938;44.794;-0.676;2023-05-06T04:56:01;5.13;;;1.70;;
21554;SDS011;10938;44.794;-0.676;2023-05-06T04:58:27;4.75;;;1.70;;
21554;SDS011;10938;44.794;-0.676;2023-05-06T05:00:56;5.00;;;1.58;;
21554;SDS011;10938;44.794;-0.676;2023-05-06T05:03:22;4.65;;;1.80;;
21554;SDS011;10938;44.794;-0.676;2023-05-06T05:05:47;5.22;;;1.50;;
21554;SDS011;10938;44.794;-0.676;2023-05-06T05:08:13;3.13;;;1.50;;
21554;SDS011;10938;44.794;-0.676;2023-05-06T05:10:41;6.20;;;1.63;;
21554;SDS011;10938;44.794;-0.676;2023-05-06T05:13:09;5.00;;;1.58;;
21554;SDS011;10938;44.794;-0.676;2023-05-06T05:15:36;3.47;;;1.45;;
21554;SDS011;10938;44.794;-0.676;2023-05-06T05:18:01;2.60;;;1.50;;
21554;SDS011;10938;44.794;-0.676;2023-05-06T05:20:26;3.83;;;1.88;;
21554;SDS011;10938;44.794;-0.676;2023-05-06T05:22:52;4.47;;;1.85;;
21554;SDS011;10938;44.794;-0.676;2023-05-06T05:25:17;3.37;;;1.77;;
21554;SDS011;10938;44.794;-0.676;2023-05-06T05:27:42;3.80;;;1.88;;
21554;SDS011;10938;44.794;-0.676;2023-05-06T05:30:08;7.13;;;1.63;;
21554;SDS011;10938;44.794;-0.676;2023-05-06T05:32:33;3.58;;;1.80;;
21554;SDS011;10938;44.794;-0.676;2023-05-06T05:34:58;4.63;;;1.80;;
21554;SDS011;10938;44.794;-0.676;2023-05-06T05:37:23;3.30;;;1.63;;
21554;SDS011;10938;44.794;-0.676;2023-05-06T05:39:49;4.78;;;2.33;;
21554;SDS011;10938;44.794;-0.676;2023-05-06T05:42:15;2.75;;;1.27;;
21554;SDS011;10938;44.794;-0.676;2023-05-06T05:44:44;3.70;;;1.63;;
21554;SDS011;10938;44.794;-0.676;2023-05-06T05:47:09;2.80;;;1.33;;
21554;SDS011;10938;44.794;-0.676;2023-05-06T05:49:35;3.90;;;1.60;;
21554;SDS011;10938;44.794;-0.676;2023-05-06T05:52:01;3.38;;;1.38;;
21554;SDS011;10938;44.794;-0.676;2023-05-06T05:54:26;3.15;;;1.13;;
21554;SDS011;10938;44.794;-0.676;2023-05-06T05:56:51;4.05;;;1.52;;
21554;SDS011;10938;44.794;-0.676;2023-05-06T05:59:17;4.90;;;1.45;;
21554;SDS011;10938;44.794;-0.676;2023-05-06T06:01:42;3.90;;;1.48;;
21554;SDS011;10938;44.794;-0.676;2023-05-06T06:04:08;2.25;;;1.45;;
21554;SDS011;10938;44.794;-0.676;2023-05-06T06:06:33;4.60;;;1.63;;
21554;SDS011;10938;44.794;-0.676;2023-05-06T06:08:59;5.00;;;1.38;;
21554;SDS011;10938;44.794;-0.676;2023-05-06T06:11:24;4.45;;;1.52;;
21554;SDS011;10938;44.794;-0.676;2023-05-06T06:13:51;6.15;;;1.33;;
21554;SDS011;10938;44.794;-0.676;2023-05-06T06:16:16;3.85;;;1.30;;
21554;SDS011;10938;44.794;-0.676;2023-05-06T06:18:41;1.88;;;1.10;;
21554;SDS011;10938;44.794;-0.676;2023-05-06T06:21:07;5.70;;;1.57;;
21554;SDS011;10938;44.794;-0.676;2023-05-06T06:23:32;2.23;;;1.30;;
21554;SDS011;10938;44.794;-0.676;2023-05-06T06:25:57;2.13;;;1.15;;
21554;SDS011;10938;44.794;-0.676;2023-05-06T06:28:23;2.93;;;1.53;;
21554;SDS011;10938;44.794;-0.676;2023-05-06T06:30:48;3.38;;;1.27;;
21554;SDS011;10938;44.794;-0.676;2023-05-06T06:33:13;2.83;;;1.33;;
21554;SDS011;10938;44.794;-0.676;2023-05-06T06:35:39;2.30;;;1.30;;
21554;SDS011;10938;44.794;-0.676;2023-05-06T06:38:04;2.90;;;1.50;;
21554;SDS011;10938;44.794;-0.676;2023-05-06T06:40:30;2.53;;;1.35;;
21554;SDS011;10938;44.794;-0.676;2023-05-06T06:42:55;4.47;;;1.60;;
21554;SDS011;10938;44.794;-0.676;2023-05-06T06:45:21;2.13;;;1.30;;
21554;SDS011;10938;44.794;-0.676;2023-05-06T06:47:47;3.05;;;1.25;;
21554;SDS011;10938;44.794;-0.676;2023-05-06T06:50:12;2.00;;;1.43;;
21554;SDS011;10938;44.794;-0.676;2023-05-06T06:52:38;3.90;;;1.40;;
21554;SDS011;10938;44.794;-0.676;2023-05-06T06:55:03;5.87;;;1.63;;
21554;SDS011;10938;44.794;-0.676;2023-05-06T06:57:28;1.83;;;1.33;;
21554;SDS011;10938;44.794;-0.676;2023-05-06T06:59:54;5.17;;;1.77;;
21554;SDS011;10938;44.794;-0.676;2023-05-06T07:02:22;1.75;;;1.48;;
21554;SDS011;10938;44.794;-0.676;2023-05-06T07:04:47;5.80;;;1.83;;
21554;SDS011;10938;44.794;-0.676;2023-05-06T07:07:13;4.55;;;1.98;;
21554;SDS011;10938;44.794;-0.676;2023-05-06T07:09:40;3.17;;;1.40;;
21554;SDS011;10938;44.794;-0.676;2023-05-06T07:12:06;2.10;;;1.73;;
21554;SDS011;10938;44.794;-0.676;2023-05-06T07:14:31;2.58;;;1.42;;
21554;SDS011;10938;44.794;-0.676;2023-05-06T07:16:57;5.82;;;1.33;;
21554;SDS011;10938;44.794;-0.676;2023-05-06T07:19:23;2.55;;;1.50;;
21554;SDS011;10938;44.794;-0.676;2023-05-06T07:21:48;3.05;;;1.73;;
21554;SDS011;10938;44.794;-0.676;2023-05-06T07:24:14;3.25;;;1.63;;
21554;SDS011;10938;44.794;-0.676;2023-05-06T07:26:39;3.20;;;1.70;;
21554;SDS011;10938;44.794;-0.676;2023-05-06T07:29:04;3.47;;;2.00;;
21554;SDS011;10938;44.794;-0.676;2023-05-06T07:31:33;2.97;;;1.90;;
21554;SDS011;10938;44.794;-0.676;2023-05-06T07:33:58;2.35;;;1.83;;
21554;SDS011;10938;44.794;-0.676;2023-05-06T07:36:24;4.40;;;1.93;;
21554;SDS011;10938;44.794;-0.676;2023-05-06T07:38:50;3.35;;;1.90;;
21554;SDS011;10938;44.794;-0.676;2023-05-06T07:41:16;5.55;;;1.95;;
21554;SDS011;10938;44.794;-0.676;2023-05-06T07:43:41;3.43;;;2.00;;
21554;SDS011;10938;44.794;-0.676;2023-05-06T07:46:07;2.90;;;1.70;;
21554;SDS011;10938;44.794;-0.676;2023-05-06T07:48:32;2.37;;;1.80;;
21554;SDS011;10938;44.794;-0.676;2023-05-06T07:50:57;3.87;;;2.10;;
21554;SDS011;10938;44.794;-0.676;2023-05-06T07:53:23;4.25;;;2.33;;
21554;SDS011;10938;44.794;-0.676;2023-05-06T07:55:48;4.30;;;1.83;;
21554;SDS011;10938;44.794;-0.676;2023-05-06T07:58:14;3.78;;;1.95;;
21554;SDS011;10938;44.794;-0.676;2023-05-06T08:00:39;4.60;;;2.47;;
21554;SDS011;10938;44.794;-0.676;2023-05-06T08:03:05;3.53;;;2.07;;
21554;SDS011;10938;44.794;-0.676;2023-05-06T08:05:30;3.37;;;2.03;;
21554;SDS011;10938;44.794;-0.676;2023-05-06T08:07:55;4.20;;;2.10;;
21554;SDS011;10938;44.794;-0.676;2023-05-06T08:10:20;3.43;;;1.80;;
21554;SDS011;10938;44.794;-0.676;2023-05-06T08:12:46;3.03;;;1.88;;
21554;SDS011;10938;44.794;-0.676;2023-05-06T08:15:12;7.05;;;1.90;;
21554;SDS011;10938;44.794;-0.676;2023-05-06T08:17:38;4.27;;;1.83;;
21554;SDS011;10938;44.794;-0.676;2023-05-06T08:20:03;5.67;;;2.10;;
21554;SDS011;10938;44.794;-0.676;2023-05-06T08:22:29;2.67;;;1.65;;
21554;SDS011;10938;44.794;-0.676;2023-05-06T08:24:54;5.53;;;1.90;;
21554;SDS011;10938;44.794;-0.676;2023-05-06T08:27:20;3.10;;;2.10;;
21554;SDS011;10938;44.794;-0.676;2023-05-06T08:29:45;6.10;;;2.00;;
21554;SDS011;10938;44.794;-0.676;2023-05-06T08:32:10;2.43;;;1.83;;
21554;SDS011;10938;44.794;-0.676;2023-05-06T08:34:36;5.97;;;2.05;;
21554;SDS011;10938;44.794;-0.676;2023-05-06T08:37:01;4.67;;;1.77;;
21554;SDS011;10938;44.794;-0.676;2023-05-06T08:39:26;5.53;;;1.87;;
21554;SDS011;10938;44.794;-0.676;2023-05-06T08:41:52;5.90;;;2.00;;
21554;SDS011;10938;44.794;-0.676;2023-05-06T08:44:19;5.15;;;1.65;;
21554;SDS011;10938;44.794;-0.676;2023-05-06T08:46:47;3.67;;;1.80;;
21554;SDS011;10938;44.794;-0.676;2023-05-06T08:49:12;3.08;;;2.28;;
21554;SDS011;10938;44.794;-0.676;2023-05-06T08:51:38;5.80;;;2.10;;
21554;SDS011;10938;44.794;-0.676;2023-05-06T08:54:03;3.58;;;2.15;;
21554;SDS011;10938;44.794;-0.676;2023-05-06T08:56:32;4.10;;;2.08;;
21554;SDS011;10938;44.794;-0.676;2023-05-06T08:58:57;4.63;;;1.88;;
21554;SDS011;10938;44.794;-0.676;2023-05-06T09:01:23;5.80;;;2.08;;
21554;SDS011;10938;44.794;-0.676;2023-05-06T09:03:49;5.90;;;1.98;;
21554;SDS011;10938;44.794;-0.676;2023-05-06T09:06:15;3.53;;;2.05;;
21554;SDS011;10938;44.794;-0.676;2023-05-06T09:08:40;3.78;;;2.25;;
21554;SDS011;10938;44.794;-0.676;2023-05-06T09:11:22;4.13;;;2.07;;
21554;SDS011;10938;44.794;-0.676;2023-05-06T09:13:48;4.22;;;2.00;;
21554;SDS011;10938;44.794;-0.676;2023-05-06T09:16:26;3.38;;;2.05;;
21554;SDS011;10938;44.794;-0.676;2023-05-06T09:18:52;2.67;;;1.90;;
21554;SDS011;10938;44.794;-0.676;2023-05-06T09:21:18;3.88;;;2.08;;
21554;SDS011;10938;44.794;-0.676;2023-05-06T09:23:43;2.37;;;1.80;;
21554;SDS011;10938;44.794;-0.676;2023-05-06T09:26:09;6.30;;;2.37;;
21554;SDS011;10938;44.794;-0.676;2023-05-06T09:28:34;2.73;;;1.87;;
21554;SDS011;10938;44.794;-0.676;2023-05-06T09:30:59;3.80;;;2.03;;
21554;SDS011;10938;44.794;-0.676;2023-05-06T09:33:25;3.60;;;2.00;;
21554;SDS011;10938;44.794;-0.676;2023-05-06T09:35:51;4.22;;;2.13;;
21554;SDS011;10938;44.794;-0.676;2023-05-06T09:38:16;4.57;;;2.03;;
21554;SDS011;10938;44.794;-0.676;2023-05-06T09:40:41;4.40;;;2.17;;
21554;SDS011;10938;44.794;-0.676;2023-05-06T09:43:07;4.73;;;2.27;;
21554;SDS011;10938;44.794;-0.676;2023-05-06T09:45:34;3.33;;;1.92;;
21554;SDS011;10938;44.794;-0.676;2023-05-06T09:48:00;3.63;;;2.50;;
21554;SDS011;10938;44.794;-0.676;2023-05-06T09:50:25;8.13;;;2.40;;
21554;SDS011;10938;44.794;-0.676;2023-05-06T09:52:51;3.85;;;1.80;;
21554;SDS011;10938;44.794;-0.676;2023-05-06T09:55:20;3.23;;;2.20;;
21554;SDS011;10938;44.794;-0.676;2023-05-06T09:57:46;3.17;;;1.83;;
21554;SDS011;10938;44.794;-0.676;2023-05-06T10:00:12;4.32;;;1.95;;
21554;SDS011;10938;44.794;-0.676;2023-05-06T10:02:38;3.33;;;1.90;;
21554;SDS011;10938;44.794;-0.676;2023-05-06T10:05:04;4.65;;;2.28;;
21554;SDS011;10938;44.794;-0.676;2023-05-06T10:07:29;3.53;;;1.88;;
21554;SDS011;10938;44.794;-0.676;2023-05-06T10:09:56;4.30;;;2.10;;
21554;SDS011;10938;44.794;-0.676;2023-05-06T10:12:22;6.55;;;2.30;;
21554;SDS011;10938;44.794;-0.676;2023-05-06T10:14:48;4.20;;;2.20;;
21554;SDS011;10938;44.794;-0.676;2023-05-06T10:17:13;3.87;;;2.20;;
21554;SDS011;10938;44.794;-0.676;2023-05-06T10:19:39;6.55;;;2.42;;
21554;SDS011;10938;44.794;-0.676;2023-05-06T10:22:09;6.25;;;2.20;;
21554;SDS011;10938;44.794;-0.676;2023-05-06T10:24:45;5.32;;;2.22;;
21554;SDS011;10938;44.794;-0.676;2023-05-06T10:27:11;6.65;;;2.00;;
21554;SDS011;10938;44.794;-0.676;2023-05-06T10:29:37;5.40;;;2.22;;
21554;SDS011;10938;44.794;-0.676;2023-05-06T10:32:03;3.33;;;2.30;;
21554;SDS011;10938;44.794;-0.676;2023-05-06T10:34:31;6.15;;;3.15;;
21554;SDS011;10938;44.794;-0.676;2023-05-06T10:37:04;4.35;;;2.60;;
21554;SDS011;10938;44.794;-0.676;2023-05-06T10:39:30;4.22;;;2.70;;
21554;SDS011;10938;44.794;-0.676;2023-05-06T10:41:55;4.68;;;2.13;;
21554;SDS011;10938;44.794;-0.676;2023-05-06T10:47:05;6.00;;;2.60;;
21554;SDS011;10938;44.794;-0.676;2023-05-06T10:49:30;3.53;;;2.33;;
21554;SDS011;10938;44.794;-0.676;2023-05-06T10:52:11;3.10;;;2.40;;
21554;SDS011;10938;44.794;-0.676;2023-05-06T10:54:49;3.03;;;2.15;;
21554;SDS011;10938;44.794;-0.676;2023-05-06T10:57:15;4.10;;;2.50;;
21554;SDS011;10938;44.794;-0.676;2023-05-06T10:59:47;5.03;;;2.45;;
21554;SDS011;10938;44.794;-0.676;2023-05-06T11:02:13;5.95;;;2.38;;
21554;SDS011;10938;44.794;-0.676;2023-05-06T11:04:39;5.43;;;2.60;;
21554;SDS011;10938;44.794;-0.676;2023-05-06T11:07:10;4.57;;;2.33;;
21554;SDS011;10938;44.794;-0.676;2023-05-06T11:12:20;4.82;;;2.67;;
21554;SDS011;10938;44.794;-0.676;2023-05-06T11:14:46;4.78;;;2.92;;
21554;SDS011;10938;44.794;-0.676;2023-05-06T11:17:30;6.40;;;3.38;;
21554;SDS011;10938;44.794;-0.676;2023-05-06T11:22:40;5.85;;;2.50;;
21554;SDS011;10938;44.794;-0.676;2023-05-06T11:25:05;4.23;;;2.37;;
21554;SDS011;10938;44.794;-0.676;2023-05-06T11:27:31;5.93;;;2.40;;
21554;SDS011;10938;44.794;-0.676;2023-05-06T11:29:56;5.47;;;2.67;;
21554;SDS011;10938;44.794;-0.676;2023-05-06T11:32:22;3.43;;;2.57;;
21554;SDS011;10938;44.794;-0.676;2023-05-06T11:34:48;3.88;;;2.50;;
21554;SDS011;10938;44.794;-0.676;2023-05-06T11:37:25;7.43;;;2.50;;
21554;SDS011;10938;44.794;-0.676;2023-05-06T11:39:50;5.55;;;2.58;;
21554;SDS011;10938;44.794;-0.676;2023-05-06T11:42:22;5.57;;;2.70;;
21554;SDS011;10938;44.794;-0.676;2023-05-06T11:44:48;4.95;;;2.40;;
21554;SDS011;10938;44.794;-0.676;2023-05-06T11:47:13;4.00;;;2.57;;
21554;SDS011;10938;44.794;-0.676;2023-05-06T11:49:41;4.77;;;2.30;;
21554;SDS011;10938;44.794;-0.676;2023-05-06T11:52:07;5.93;;;2.42;;
21554;SDS011;10938;44.794;-0.676;2023-05-06T11:54:42;3.58;;;2.38;;
21554;SDS011;10938;44.794;-0.676;2023-05-06T11:57:08;6.43;;;4.28;;
21554;SDS011;10938;44.794;-0.676;2023-05-06T11:59:34;5.80;;;2.80;;
21554;SDS011;10938;44.794;-0.676;2023-05-06T12:02:01;6.00;;;2.72;;
21554;SDS011;10938;44.794;-0.676;2023-05-06T12:04:27;5.35;;;2.67;;
21554;SDS011;10938;44.794;-0.676;2023-05-06T12:07:00;4.00;;;2.60;;
21554;SDS011;10938;44.794;-0.676;2023-05-06T12:09:26;3.83;;;2.20;;
21554;SDS011;10938;44.794;-0.676;2023-05-06T12:11:51;4.45;;;2.50;;
21554;SDS011;10938;44.794;-0.676;2023-05-06T12:14:17;5.53;;;2.40;;
21554;SDS011;10938;44.794;-0.676;2023-05-06T12:16:43;6.85;;;2.67;;
21554;SDS011;10938;44.794;-0.676;2023-05-06T12:19:08;5.80;;;2.55;;
21554;SDS011;10938;44.794;-0.676;2023-05-06T12:21:37;4.30;;;2.37;;
21554;SDS011;10938;44.794;-0.676;2023-05-06T12:24:02;7.22;;;2.60;;
21554;SDS011;10938;44.794;-0.676;2023-05-06T12:26:28;5.75;;;2.60;;
21554;SDS011;10938;44.794;-0.676;2023-05-06T12:29:06;3.67;;;2.50;;
21554;SDS011;10938;44.794;-0.676;2023-05-06T12:31:32;6.50;;;2.97;;
21554;SDS011;10938;44.794;-0.676;2023-05-06T12:33:57;5.03;;;2.30;;
21554;SDS011;10938;44.794;-0.676;2023-05-06T12:36:22;3.00;;;2.33;;
21554;SDS011;10938;44.794;-0.676;2023-05-06T12:38:51;3.40;;;2.27;;
21554;SDS011;10938;44.794;-0.676;2023-05-06T12:41:17;4.70;;;2.50;;
21554;SDS011;10938;44.794;-0.676;2023-05-06T12:43:43;3.42;;;2.03;;
21554;SDS011;10938;44.794;-0.676;2023-05-06T12:46:08;3.63;;;2.30;;
21554;SDS011;10938;44.794;-0.676;2023-05-06T12:48:34;4.65;;;2.33;;
21554;SDS011;10938;44.794;-0.676;2023-05-06T12:51:00;7.30;;;2.50;;
21554;SDS011;10938;44.794;-0.676;2023-05-06T12:53:40;5.05;;;2.65;;
21554;SDS011;10938;44.794;-0.676;2023-05-06T12:56:06;3.90;;;2.63;;
21554;SDS011;10938;44.794;-0.676;2023-05-06T12:58:31;3.63;;;2.70;;
21554;SDS011;10938;44.794;-0.676;2023-05-06T13:01:01;7.40;;;2.85;;
21554;SDS011;10938;44.794;-0.676;2023-05-06T13:03:26;5.17;;;2.37;;
21554;SDS011;10938;44.794;-0.676;2023-05-06T13:05:51;4.93;;;2.70;;
21554;SDS011;10938;44.794;-0.676;2023-05-06T13:08:17;5.57;;;2.60;;
21554;SDS011;10938;44.794;-0.676;2023-05-06T13:10:43;6.15;;;2.47;;
21554;SDS011;10938;44.794;-0.676;2023-05-06T13:13:08;4.30;;;2.50;;
21554;SDS011;10938;44.794;-0.676;2023-05-06T13:15:34;5.57;;;2.47;;
21554;SDS011;10938;44.794;-0.676;2023-05-06T13:17:59;4.90;;;2.40;;
21554;SDS011;10938;44.794;-0.676;2023-05-06T13:20:25;5.53;;;2.73;;
21554;SDS011;10938;44.794;-0.676;2023-05-06T13:22:50;4.40;;;2.67;;
21554;SDS011;10938;44.794;-0.676;2023-05-06T13:25:16;3.95;;;2.63;;
21554;SDS011;10938;44.794;-0.676;2023-05-06T13:27:41;5.10;;;2.22;;
21554;SDS011;10938;44.794;-0.676;2023-05-06T13:30:06;5.03;;;2.30;;
21554;SDS011;10938;44.794;-0.676;2023-05-06T13:32:32;3.30;;;2.20;;
21554;SDS011;10938;44.794;-0.676;2023-05-06T13:34:58;3.30;;;1.98;;
21554;SDS011;10938;44.794;-0.676;2023-05-06T13:37:23;5.70;;;2.00;;
21554;SDS011;10938;44.794;-0.676;2023-05-06T13:39:48;4.23;;;2.00;;
21554;SDS011;10938;44.794;-0.676;2023-05-06T13:42:14;4.37;;;1.87;;
21554;SDS011;10938;44.794;-0.676;2023-05-06T13:44:39;4.85;;;1.67;;
21554;SDS011;10938;44.794;-0.676;2023-05-06T13:47:04;5.30;;;1.67;;
21554;SDS011;10938;44.794;-0.676;2023-05-06T13:49:30;5.68;;;2.10;;
21554;SDS011;10938;44.794;-0.676;2023-05-06T13:51:55;3.72;;;1.95;;
21554;SDS011;10938;44.794;-0.676;2023-05-06T13:54:21;9.23;;;2.20;;
21554;SDS011;10938;44.794;-0.676;2023-05-06T13:56:46;5.20;;;1.58;;
21554;SDS011;10938;44.794;-0.676;2023-05-06T13:59:12;7.10;;;2.10;;
21554;SDS011;10938;44.794;-0.676;2023-05-06T14:01:38;5.30;;;2.17;;
21554;SDS011;10938;44.794;-0.676;2023-05-06T14:04:03;5.43;;;1.93;;
21554;SDS011;10938;44.794;-0.676;2023-05-06T14:06:32;5.65;;;2.35;;
21554;SDS011;10938;44.794;-0.676;2023-05-06T14:08:57;4.07;;;1.90;;
21554;SDS011;10938;44.794;-0.676;2023-05-06T14:11:23;6.03;;;2.00;;
21554;SDS011;10938;44.794;-0.676;2023-05-06T14:13:48;5.77;;;2.30;;
21554;SDS011;10938;44.794;-0.676;2023-05-06T14:16:14;7.50;;;2.10;;
21554;SDS011;10938;44.794;-0.676;2023-05-06T14:18:40;4.50;;;1.85;;
21554;SDS011;10938;44.794;-0.676;2023-05-06T14:21:06;5.00;;;2.13;;
21554;SDS011;10938;44.794;-0.676;2023-05-06T14:23:31;4.43;;;1.93;;
21554;SDS011;10938;44.794;-0.676;2023-05-06T14:25:56;3.97;;;1.98;;
21554;SDS011;10938;44.794;-0.676;2023-05-06T14:28:22;9.67;;;2.20;;
21554;SDS011;10938;44.794;-0.676;2023-05-06T14:30:48;11.82;;;2.30;;
21554;SDS011;10938;44.794;-0.676;2023-05-06T14:33:14;6.95;;;2.10;;
21554;SDS011;10938;44.794;-0.676;2023-05-06T14:35:39;4.13;;;1.90;;
21554;SDS011;10938;44.794;-0.676;2023-05-06T14:38:06;6.60;;;1.95;;
21554;SDS011;10938;44.794;-0.676;2023-05-06T14:40:31;6.00;;;1.77;;
21554;SDS011;10938;44.794;-0.676;2023-05-06T14:42:57;5.55;;;1.73;;
21554;SDS011;10938;44.794;-0.676;2023-05-06T14:45:22;14.77;;;2.50;;